Time;durP1;ratioP1;P1;durP2;ratioP2;P2;SDS_P1;SDS_P2;PMS_P1;PMS_P2;Temp;Humidity;BMP_temperature;BMP_pressure;BME280_temperature;BME280_humidity;BME280_pressure;Samples;Min_cycle;Max_cycle;Signal;HPM_P1;HPM_P2
2023/03/17 00:00:40;;;;;;;1.95;1.17;;;;;;;13.38;28.09;96744.47;5043677;28;20373;-32
2023/03/17 00:03:05;;;;;;;1.33;0.80;;;;;;;13.42;27.27;96742.41;5048122;28;20082;-33
2023/03/17 00:05:36;;;;;;;1.85;0.90;;;;;;;13.39;28.21;96737.81;5045211;28;20020;-33
2023/03/17 00:08:26;;;;;;;1.50;0.70;;;;;;;13.28;27.79;96749.06;5046183;28;20025;-33
2023/03/17 00:10:52;;;;;;;1.33;0.77;;;;;;;13.54;27.41;96747.09;5045536;28;20082;-32
2023/03/17 00:13:18;;;;;;;1.45;0.80;;;;;;;13.41;28.21;96749.81;5046343;28;20033;-32
2023/03/17 00:15:45;;;;;;;2.83;0.77;;;;;;;13.35;27.87;96748.84;5045015;28;20031;-32
2023/03/17 00:18:15;;;;;;;2.65;0.98;;;;;;;13.33;28.29;96753.22;5042806;28;20074;-32
2023/03/17 00:20:41;;;;;;;3.08;1.52;;;;;;;13.59;27.95;96749.28;5042438;28;20472;-33
2023/03/17 00:23:15;;;;;;;1.88;0.73;;;;;;;13.37;28.43;96745.66;5038727;28;20033;-32
2023/03/17 00:25:42;;;;;;;1.73;1.00;;;;;;;13.25;28.66;96753.41;5044919;28;20017;-32
2023/03/17 00:28:22;;;;;;;2.13;1.05;;;;;;;13.52;28.40;96747.53;5046246;28;20033;-32
2023/03/17 00:30:53;;;;;;;2.50;0.98;;;;;;;13.35;28.26;96748.09;5042482;28;20392;-32
2023/03/17 00:33:22;;;;;;;1.67;0.73;;;;;;;13.44;28.00;96748.94;5034609;28;20354;-32
2023/03/17 00:35:48;;;;;;;1.35;0.77;;;;;;;13.26;27.97;96749.50;5035793;28;20025;-33
2023/03/17 00:38:19;;;;;;;0.85;0.70;;;;;;;13.38;27.93;96739.03;5043877;28;20017;-34
2023/03/17 00:40:45;;;;;;;1.65;1.02;;;;;;;13.31;28.42;96748.19;5047537;28;20532;-32
2023/03/17 00:43:11;;;;;;;2.40;1.05;;;;;;;13.24;28.57;96746.44;5042613;28;20071;-32
2023/03/17 00:45:38;;;;;;;1.08;0.80;;;;;;;13.46;28.56;96743.84;5049124;28;20380;-33
2023/03/17 00:48:19;;;;;;;2.97;1.50;;;;;;;13.20;28.33;96745.78;5042778;28;20042;-32
2023/03/17 00:50:47;;;;;;;3.05;1.30;;;;;;;13.25;28.43;96750.69;5042098;28;20476;-32
2023/03/17 00:53:15;;;;;;;1.20;0.60;;;;;;;13.39;28.58;96735.88;5049324;28;20151;-32
2023/03/17 00:55:43;;;;;;;2.70;1.08;;;;;;;13.37;28.29;96740.22;5045356;28;20396;-32
2023/03/17 00:58:17;;;;;;;1.17;0.70;;;;;;;13.54;28.37;96741.63;5045487;28;20520;-32
2023/03/17 01:00:43;;;;;;;1.38;0.77;;;;;;;13.21;28.82;96736.44;5044357;28;20025;-32
2023/03/17 01:03:11;;;;;;;2.20;0.80;;;;;;;13.34;28.32;96736.44;5046078;28;20023;-32
2023/03/17 01:05:37;;;;;;;1.58;1.00;;;;;;;13.44;28.72;96737.28;5036362;28;20546;-32
2023/03/17 01:08:03;;;;;;;1.95;1.30;;;;;;;13.40;28.60;96731.19;5045983;28;20108;-32
2023/03/17 01:10:29;;;;;;;2.30;1.17;;;;;;;13.29;28.05;96736.97;5045275;28;20108;-33
2023/03/17 01:12:57;;;;;;;1.98;1.20;;;;;;;13.18;29.02;96740.03;5034635;28;20560;-32
2023/03/17 01:15:24;;;;;;;2.50;0.80;;;;;;;13.19;28.37;96733.38;5041979;28;20048;-33
2023/03/17 01:17:50;;;;;;;1.00;0.73;;;;;;;13.29;28.50;96737.72;5042597;28;20107;-33
2023/03/17 01:20:22;;;;;;;1.45;0.90;;;;;;;13.06;28.45;96738.03;5045298;28;20115;-33
2023/03/17 01:22:50;;;;;;;1.20;0.65;;;;;;;13.19;28.33;96730.66;5043914;28;20075;-32
2023/03/17 01:25:17;;;;;;;1.23;0.70;;;;;;;13.11;28.49;96725.81;5034385;28;20473;-33
2023/03/17 01:27:43;;;;;;;1.55;1.38;;;;;;;13.23;28.34;96727.81;5041475;28;20091;-33
2023/03/17 01:30:31;;;;;;;1.98;0.68;;;;;;;13.08;28.46;96724.75;5036740;28;20028;-32
2023/03/17 01:32:57;;;;;;;1.73;0.90;;;;;;;13.02;28.45;96736.59;5043566;28;20033;-33
2023/03/17 01:35:24;;;;;;;0.90;0.70;;;;;;;12.93;28.63;96734.53;5037299;28;20045;-32
2023/03/17 01:37:50;;;;;;;2.38;0.85;;;;;;;13.12;28.64;96741.72;5044837;28;20047;-32
2023/03/17 01:40:23;;;;;;;1.10;0.70;;;;;;;13.11;28.53;96729.28;5042423;28;20032;-32
2023/03/17 01:42:53;;;;;;;;;;;;;;;12.94;28.62;96722.44;5040877;28;20028;-32
2023/03/17 01:45:57;;;;;;;1.00;0.50;;;;;;;12.94;28.73;96715.03;5043870;28;20004;-32
2023/03/17 01:48:23;;;;;;;;;;;;;;;12.90;29.12;96708.94;5034689;28;20053;-32
2023/03/17 01:50:50;;;;;;;1.40;0.55;;;;;;;12.92;28.99;96709.25;5044364;28;19909;-33
2023/03/17 01:53:18;;;;;;;2.25;1.00;;;;;;;12.79;28.89;96713.16;5043613;28;20025;-32
2023/03/17 01:55:46;;;;;;;1.30;0.75;;;;;;;12.93;28.81;96708.06;5037283;28;20021;-32
2023/03/17 01:58:15;;;;;;;1.65;0.75;;;;;;;12.87;28.59;96709.03;5037970;28;20032;-34
2023/03/17 02:00:42;;;;;;;1.60;0.70;;;;;;;12.97;29.22;96709.94;5043333;28;20027;-32
2023/03/17 02:03:08;;;;;;;2.65;0.75;;;;;;;12.80;29.12;96714.69;5046701;28;20025;-32
2023/03/17 02:05:35;;;;;;;1.00;0.50;;;;;;;13.19;28.56;96711.59;5035385;28;20029;-32
2023/03/17 02:08:01;;;;;;;1.20;0.70;;;;;;;13.07;29.32;96712.31;5041176;28;20091;-32
2023/03/17 02:10:28;;;;;;;1.35;0.57;;;;;;;12.89;28.75;96710.13;5041310;28;20026;-32
2023/03/17 02:12:57;;;;;;;1.05;0.68;;;;;;;13.05;28.83;96708.50;5041394;28;20404;-32
2023/03/17 02:15:34;;;;;;;1.90;1.00;;;;;;;13.09;29.15;96707.22;5040948;28;20484;-32
2023/03/17 02:17:59;;;;;;;2.55;1.13;;;;;;;13.04;28.83;96701.53;5042714;28;20029;-32
2023/03/17 02:20:26;;;;;;;2.22;0.93;;;;;;;12.98;28.76;96698.59;5043856;28;20025;-32
2023/03/17 02:22:53;;;;;;;2.00;1.20;;;;;;;12.92;28.71;96698.38;5042683;28;20053;-32
2023/03/17 02:25:20;;;;;;;2.28;0.90;;;;;;;12.73;29.45;96699.34;5041352;28;20029;-32
2023/03/17 02:27:50;;;;;;;1.65;0.88;;;;;;;12.79;29.09;96692.16;5040725;28;20404;-32
2023/03/17 02:30:22;;;;;;;2.92;0.80;;;;;;;12.67;29.64;96692.91;5043480;28;20018;-32
2023/03/17 02:32:48;;;;;;;1.40;0.95;;;;;;;12.72;29.52;96691.63;5044514;28;20032;-32
2023/03/17 02:35:14;;;;;;;1.63;0.90;;;;;;;12.87;29.20;96689.97;5034826;28;20033;-32
2023/03/17 02:37:42;;;;;;;1.30;0.80;;;;;;;12.76;30.00;96692.25;5039063;28;20010;-32
2023/03/17 02:40:10;;;;;;;2.10;0.73;;;;;;;12.82;29.26;96682.38;5047554;28;20020;-32
2023/03/17 02:42:38;;;;;;;1.40;0.93;;;;;;;12.63;29.54;96683.31;5036582;28;20044;-32
2023/03/17 02:45:05;;;;;;;2.33;0.70;;;;;;;12.78;30.15;96695.31;5036244;28;20031;-32
2023/03/17 02:47:31;;;;;;;2.10;1.02;;;;;;;12.73;30.15;96693.13;5041345;28;20045;-32
2023/03/17 02:49:57;;;;;;;2.03;1.10;;;;;;;12.77;29.65;96693.78;5040547;28;20103;-32
2023/03/17 02:52:23;;;;;;;2.05;1.15;;;;;;;12.76;29.68;96694.97;5041153;28;20082;-32
2023/03/17 02:54:49;;;;;;;2.60;1.20;;;;;;;12.99;29.46;96700.09;5043135;28;20017;-33
2023/03/17 02:57:15;;;;;;;2.47;1.48;;;;;;;12.98;29.92;96704.06;5043410;28;20082;-32
2023/03/17 02:59:40;;;;;;;2.03;1.52;;;;;;;12.92;29.71;96706.53;5042153;28;20029;-33
2023/03/17 03:02:07;;;;;;;1.65;1.13;;;;;;;12.81;29.72;96710.78;5043393;28;20032;-32
2023/03/17 03:04:33;;;;;;;3.08;1.40;;;;;;;12.85;30.08;96700.56;5042597;28;20112;-32
2023/03/17 03:06:59;;;;;;;2.05;1.17;;;;;;;12.87;29.57;96709.03;5043268;28;20461;-32
2023/03/17 03:09:24;;;;;;;4.55;1.60;;;;;;;12.96;29.71;96714.59;5043435;28;20433;-33
2023/03/17 03:11:50;;;;;;;1.83;1.02;;;;;;;12.74;29.88;96710.97;5034655;28;20439;-32
2023/03/17 03:14:15;;;;;;;1.83;1.20;;;;;;;12.76;29.63;96711.31;5046303;28;20028;-32
2023/03/17 03:16:42;;;;;;;2.28;1.40;;;;;;;12.79;29.82;96715.88;5040035;28;20037;-32
2023/03/17 03:19:08;;;;;;;4.57;2.20;;;;;;;12.85;29.81;96714.94;5031486;28;20025;-32
2023/03/17 03:21:35;;;;;;;5.78;2.47;;;;;;;12.75;29.58;96717.94;5046777;28;20112;-32
2023/03/17 03:24:01;;;;;;;3.00;1.50;;;;;;;12.94;29.85;96717.75;5033130;28;20030;-32
2023/03/17 03:26:27;;;;;;;3.42;1.92;;;;;;;12.88;29.77;96727.66;5040156;28;20021;-33
2023/03/17 03:28:52;;;;;;;3.05;1.77;;;;;;;12.79;29.79;96729.50;5040432;28;20369;-32
2023/03/17 03:31:18;;;;;;;2.65;1.33;;;;;;;12.89;29.50;96731.13;5033307;28;20025;-32
2023/03/17 03:33:45;;;;;;;1.88;1.40;;;;;;;12.79;29.67;96732.22;5039942;28;20017;-32
2023/03/17 03:36:10;;;;;;;1.50;0.90;;;;;;;12.66;30.10;96731.44;5040538;28;20035;-32
2023/03/17 03:38:36;;;;;;;2.35;1.20;;;;;;;12.75;30.09;96731.53;5043144;28;20108;-32
2023/03/17 03:41:02;;;;;;;2.38;1.20;;;;;;;12.95;29.98;96732.13;5042377;28;20025;-32
2023/03/17 03:43:27;;;;;;;3.40;1.40;;;;;;;12.78;30.11;96733.41;5040071;28;20020;-32
2023/03/17 03:45:53;;;;;;;2.15;1.10;;;;;;;12.75;30.35;96739.72;5038692;28;20453;-33
2023/03/17 03:48:20;;;;;;;2.00;1.13;;;;;;;12.86;29.93;96740.16;5034712;28;20041;-32
2023/03/17 03:50:46;;;;;;;2.28;1.10;;;;;;;12.72;30.38;96724.28;5041585;28;20024;-32
2023/03/17 03:53:12;;;;;;;2.30;1.02;;;;;;;12.99;30.47;96730.06;5035704;28;20021;-32
2023/03/17 03:55:38;;;;;;;2.55;0.88;;;;;;;13.03;30.40;96733.44;5042555;28;20017;-32
2023/03/17 03:58:03;;;;;;;1.80;0.90;;;;;;;12.92;30.31;96747.38;5042278;28;20108;-32
2023/03/17 04:00:29;;;;;;;2.85;0.90;;;;;;;12.78;30.39;96749.75;5038472;28;20060;-32
2023/03/17 04:02:54;;;;;;;2.22;0.90;;;;;;;12.75;30.37;96742.44;5043370;28;20029;-32
2023/03/17 04:05:21;;;;;;;3.20;0.95;;;;;;;12.86;30.38;96740.94;5043034;28;20384;-33
2023/03/17 04:07:46;;;;;;;1.58;0.80;;;;;;;12.82;30.58;96736.78;5042942;28;20476;-32
2023/03/17 04:10:14;;;;;;;2.58;1.05;;;;;;;12.86;31.06;96746.38;5043728;28;20029;-32
2023/03/17 04:12:39;;;;;;;1.63;0.80;;;;;;;12.76;30.61;96742.00;5043798;28;20029;-32
2023/03/17 04:15:10;;;;;;;2.80;0.88;;;;;;;12.92;30.24;96747.38;5043196;28;20071;-32
2023/03/17 04:17:35;;;;;;;2.17;0.90;;;;;;;12.70;30.80;96743.75;5042740;28;20025;-32
2023/03/17 04:20:01;;;;;;;1.30;0.70;;;;;;;12.79;30.40;96746.59;5042647;28;20025;-32
2023/03/17 04:22:27;;;;;;;1.65;0.70;;;;;;;12.88;31.10;96746.69;5041094;28;20032;-32
2023/03/17 04:24:52;;;;;;;1.23;0.80;;;;;;;12.71;30.54;96749.94;5038212;28;20022;-32
2023/03/17 04:27:18;;;;;;;3.20;1.10;;;;;;;12.64;30.56;96748.19;5046266;28;20095;-32
2023/03/17 04:29:44;;;;;;;1.58;0.80;;;;;;;12.70;30.41;96754.63;5039145;28;20176;-32
2023/03/17 04:32:13;;;;;;;1.73;0.70;;;;;;;12.52;30.44;96752.41;5044334;28;20033;-33
2023/03/17 04:34:40;;;;;;;3.47;0.80;;;;;;;12.62;30.06;96760.69;5047252;28;20017;-32
2023/03/17 04:37:06;;;;;;;2.17;0.85;;;;;;;12.70;30.57;96754.63;5043241;28;20021;-32
2023/03/17 04:39:31;;;;;;;3.30;1.60;;;;;;;12.64;31.03;96750.13;5049981;28;20019;-32
2023/03/17 04:41:57;;;;;;;9.82;3.45;;;;;;;12.61;31.37;96749.03;5042252;28;20104;-33
2023/03/17 04:44:22;;;;;;;5.60;2.25;;;;;;;12.79;30.77;96748.53;5042391;28;20536;-32
2023/03/17 04:46:48;;;;;;;6.15;2.17;;;;;;;12.79;30.89;96754.75;5047267;28;20098;-34
2023/03/17 04:49:13;;;;;;;7.15;1.85;;;;;;;12.84;30.77;96756.19;5044608;28;20045;-32
2023/03/17 04:51:39;;;;;;;1.80;0.90;;;;;;;12.69;30.77;96755.06;5042413;28;20025;-32
2023/03/17 04:54:05;;;;;;;2.65;0.90;;;;;;;12.67;31.14;96750.03;5041745;28;20013;-32
2023/03/17 04:56:31;;;;;;;2.58;0.95;;;;;;;12.76;31.19;96742.00;5043043;28;20362;-32
2023/03/17 04:58:56;;;;;;;1.23;0.80;;;;;;;12.83;31.11;96749.22;5039425;28;20021;-32
2023/03/17 05:01:23;;;;;;;2.25;0.75;;;;;;;12.63;31.91;96743.16;5044949;28;20115;-32
2023/03/17 05:03:48;;;;;;;1.55;0.57;;;;;;;12.76;31.47;96746.69;5045212;28;20013;-32
2023/03/17 05:06:15;;;;;;;1.48;0.70;;;;;;;12.81;31.44;96741.47;5039732;28;20136;-32
2023/03/17 05:08:43;;;;;;;4.18;0.60;;;;;;;12.74;30.97;96744.38;5049358;28;20453;-32
2023/03/17 05:11:09;;;;;;;0.90;0.80;;;;;;;12.79;30.99;96749.31;5046432;28;20029;-32
2023/03/17 05:13:35;;;;;;;1.00;0.70;;;;;;;12.90;31.22;96757.16;5044720;28;20049;-32
2023/03/17 05:16:01;;;;;;;0.90;0.60;;;;;;;12.80;31.12;96747.34;5044537;28;20056;-32
2023/03/17 05:18:27;;;;;;;1.33;0.63;;;;;;;12.69;31.07;96752.34;5045216;28;20093;-32
2023/03/17 05:20:52;;;;;;;2.30;0.70;;;;;;;12.61;30.88;96754.47;5043399;28;20087;-33
2023/03/17 05:23:18;;;;;;;2.20;0.70;;;;;;;12.73;30.89;96753.00;5039048;28;20028;-32
2023/03/17 05:25:44;;;;;;;0.80;0.70;;;;;;;12.68;30.60;96753.53;5044953;28;20031;-32
2023/03/17 05:28:10;;;;;;;0.82;0.60;;;;;;;12.75;30.19;96750.59;5044146;28;20467;-32
2023/03/17 05:30:35;;;;;;;3.00;0.88;;;;;;;12.82;30.57;96756.63;5045431;28;20025;-32
2023/03/17 05:33:01;;;;;;;1.83;0.80;;;;;;;12.50;30.77;96762.16;5044301;28;20022;-32
2023/03/17 05:35:27;;;;;;;3.17;0.70;;;;;;;12.71;30.71;96766.28;5048922;28;20955;-32
2023/03/17 05:37:53;;;;;;;1.02;0.80;;;;;;;12.58;30.71;96764.28;5040820;28;20104;-32
2023/03/17 05:40:19;;;;;;;3.05;0.75;;;;;;;12.65;30.60;96774.19;5041755;28;20116;-32
2023/03/17 05:42:44;;;;;;;3.28;0.90;;;;;;;12.39;31.71;96776.06;5041221;28;20021;-32
2023/03/17 05:45:11;;;;;;;1.80;0.73;;;;;;;12.64;30.67;96777.34;5048279;28;20599;-32
2023/03/17 05:47:36;;;;;;;2.42;0.90;;;;;;;12.72;31.23;96784.91;5040774;28;20057;-32
2023/03/17 05:50:04;;;;;;;2.60;1.30;;;;;;;12.61;31.00;96775.50;5040913;28;20025;-32
2023/03/17 05:52:30;;;;;;;4.28;2.40;;;;;;;12.82;31.00;96766.75;5034990;28;20040;-32
2023/03/17 05:54:56;;;;;;;5.68;2.00;;;;;;;12.79;31.16;96770.31;5046330;28;20017;-33
2023/03/17 05:57:22;;;;;;;2.60;1.40;;;;;;;12.77;30.94;96769.97;5041335;28;20075;-32
2023/03/17 05:59:49;;;;;;;1.30;0.80;;;;;;;12.80;31.01;96769.13;5044143;28;20012;-32
2023/03/17 06:02:14;;;;;;;1.13;0.70;;;;;;;12.89;30.83;96780.13;5038381;28;20029;-32
2023/03/17 06:04:40;;;;;;;1.85;0.90;;;;;;;12.85;30.77;96787.66;5042338;28;20480;-32
2023/03/17 06:07:06;;;;;;;1.70;0.90;;;;;;;12.71;31.21;96783.38;5044144;28;20519;-32
2023/03/17 06:09:32;;;;;;;2.03;0.77;;;;;;;12.83;31.24;96790.03;5043141;28;20021;-32
2023/03/17 06:11:59;;;;;;;2.33;0.80;;;;;;;12.68;31.36;96788.91;5040780;28;20101;-32
2023/03/17 06:14:25;;;;;;;2.40;0.70;;;;;;;12.92;31.17;96787.44;5040948;28;20029;-32
2023/03/17 06:16:51;;;;;;;1.10;0.57;;;;;;;12.89;30.95;96785.56;5034848;28;20022;-33
2023/03/17 06:19:16;;;;;;;1.27;0.80;;;;;;;12.89;30.93;96788.28;5043906;28;20032;-32
2023/03/17 06:21:42;;;;;;;1.75;0.90;;;;;;;13.06;30.90;96784.31;5043182;28;20024;-34
2023/03/17 06:24:07;;;;;;;2.05;0.60;;;;;;;13.11;31.08;96794.66;5040789;28;20017;-32
2023/03/17 06:26:33;;;;;;;1.55;0.73;;;;;;;12.89;31.47;96780.91;5033380;28;20021;-32
2023/03/17 06:29:00;;;;;;;2.00;0.90;;;;;;;13.01;31.43;96784.84;5040747;28;20025;-34
2023/03/17 06:31:26;;;;;;;0.98;0.60;;;;;;;13.00;31.05;96783.31;5041039;28;20021;-33
2023/03/17 06:33:52;;;;;;;2.35;0.73;;;;;;;13.02;31.75;96786.38;5040468;28;20117;-33
2023/03/17 06:36:17;;;;;;;3.88;1.02;;;;;;;13.08;31.28;96783.88;5040473;28;20052;-34
2023/03/17 06:38:43;;;;;;;2.38;1.02;;;;;;;12.86;31.22;96784.47;5040809;28;20013;-32
2023/03/17 06:41:08;;;;;;;2.38;0.93;;;;;;;12.94;31.20;96779.59;5040383;28;20464;-33
2023/03/17 06:43:35;;;;;;;1.20;0.75;;;;;;;13.02;31.21;96780.91;5043529;28;20024;-33
2023/03/17 06:46:00;;;;;;;1.30;0.70;;;;;;;13.16;30.74;96785.22;5035944;28;20026;-32
2023/03/17 06:48:27;;;;;;;1.40;0.70;;;;;;;13.01;30.89;96787.56;5041755;28;20044;-33
2023/03/17 06:50:53;;;;;;;2.08;1.05;;;;;;;13.07;31.00;96791.28;5046388;28;20477;-33
2023/03/17 06:53:18;;;;;;;2.05;1.10;;;;;;;12.99;30.78;96792.66;5032999;28;20021;-32
2023/03/17 06:55:45;;;;;;;2.70;0.90;;;;;;;13.08;31.08;96792.81;5043760;28;20021;-32
2023/03/17 06:58:12;;;;;;;1.30;0.75;;;;;;;13.16;30.94;96796.88;5037279;28;20022;-32
2023/03/17 07:00:38;;;;;;;1.00;0.80;;;;;;;13.28;30.82;96801.56;5041543;28;20159;-32
2023/03/17 07:03:04;;;;;;;1.15;0.70;;;;;;;13.33;31.04;96797.56;5043085;28;20025;-33
2023/03/17 07:05:31;;;;;;;4.25;1.08;;;;;;;13.37;31.54;96800.16;5034903;28;20033;-32
2023/03/17 07:07:57;;;;;;;1.05;0.70;;;;;;;13.25;31.62;96798.94;5040660;28;20109;-33
2023/03/17 07:10:25;;;;;;;3.10;0.75;;;;;;;13.35;31.66;96802.56;5040312;28;20174;-32
2023/03/17 07:12:50;;;;;;;0.77;0.50;;;;;;;13.36;31.70;96798.63;5039999;28;20025;-32
2023/03/17 07:15:17;;;;;;;1.48;0.63;;;;;;;13.40;31.09;96802.00;5040338;28;20032;-32
2023/03/17 07:17:45;;;;;;;0.75;0.60;;;;;;;13.43;30.59;96809.31;5040190;28;20036;-33
2023/03/17 07:20:12;;;;;;;1.15;0.60;;;;;;;13.54;30.43;96807.03;5040729;28;20029;-33
2023/03/17 07:22:39;;;;;;;3.97;0.80;;;;;;;13.47;31.12;96812.72;5040177;28;20053;-32
2023/03/17 07:25:05;;;;;;;1.27;0.77;;;;;;;13.32;30.91;96806.91;5034831;28;20022;-32
2023/03/17 07:27:31;;;;;;;1.45;0.70;;;;;;;13.42;30.56;96805.06;5042728;28;20021;-33
2023/03/17 07:29:56;;;;;;;2.40;0.75;;;;;;;13.29;30.94;96807.78;5034979;28;20028;-33
2023/03/17 07:32:22;;;;;;;1.35;0.70;;;;;;;13.36;31.03;96814.97;5051436;28;20527;-33
2023/03/17 07:34:48;;;;;;;1.50;0.63;;;;;;;13.49;30.98;96815.75;5044926;28;20108;-32
2023/03/17 07:37:13;;;;;;;2.50;1.13;;;;;;;13.48;30.67;96814.22;5051521;28;20029;-33
2023/03/17 07:39:39;;;;;;;3.50;1.90;;;;;;;13.42;30.76;96813.25;5048697;28;20021;-32
2023/03/17 07:42:04;;;;;;;4.80;1.05;;;;;;;13.60;31.17;96813.44;5046649;28;20021;-33
2023/03/17 07:44:31;;;;;;;4.18;1.20;;;;;;;13.64;31.45;96817.59;5046329;28;20029;-33
2023/03/17 07:46:57;;;;;;;4.82;1.38;;;;;;;13.77;31.40;96820.31;5043527;28;20048;-33
2023/03/17 07:49:23;;;;;;;3.22;1.98;;;;;;;13.60;31.45;96813.44;5045073;28;20067;-33
2023/03/17 07:51:48;;;;;;;4.97;2.03;;;;;;;13.65;31.61;96812.91;5040834;28;20024;-33
2023/03/17 07:54:14;;;;;;;3.50;2.05;;;;;;;13.74;31.24;96817.69;5046270;28;20022;-33
2023/03/17 07:56:41;;;;;;;5.28;1.92;;;;;;;13.62;32.28;96824.69;5045836;28;20032;-33
2023/03/17 07:59:07;;;;;;;7.22;3.10;;;;;;;13.55;31.97;96822.19;5046677;28;20090;-32
2023/03/17 08:01:33;;;;;;;8.90;2.92;;;;;;;13.79;32.13;96809.75;5038122;28;20116;-33
2023/03/17 08:03:59;;;;;;;7.75;3.08;;;;;;;13.71;31.96;96813.91;5042856;28;20027;-33
2023/03/17 08:06:25;;;;;;;6.25;2.47;;;;;;;13.75;30.92;96817.25;5043159;28;20022;-32
2023/03/17 08:08:51;;;;;;;7.13;2.72;;;;;;;13.52;31.98;96815.63;5045480;28;20022;-33
2023/03/17 08:11:17;;;;;;;5.03;2.25;;;;;;;13.68;32.18;96814.78;5041284;28;20029;-33
2023/03/17 08:13:43;;;;;;;5.13;2.00;;;;;;;13.79;32.03;96815.19;5042899;28;20032;-32
2023/03/17 08:16:08;;;;;;;5.65;1.95;;;;;;;13.77;32.09;96822.28;5043108;28;20036;-33
2023/03/17 08:18:35;;;;;;;3.58;1.73;;;;;;;13.85;32.49;96807.97;5043272;28;20024;-33
2023/03/17 08:21:01;;;;;;;4.43;2.00;;;;;;;13.82;32.28;96811.59;5036521;28;20036;-32
2023/03/17 08:23:26;;;;;;;4.80;2.20;;;;;;;13.75;32.80;96819.22;5042787;28;20108;-33
2023/03/17 08:26:00;;;;;;;3.28;1.90;;;;;;;13.87;32.31;96821.19;5042401;28;20018;-33
2023/03/17 08:28:25;;;;;;;3.22;1.65;;;;;;;13.97;31.87;96820.09;5046059;28;20017;-33
2023/03/17 08:30:51;;;;;;;5.30;1.75;;;;;;;13.84;32.44;96814.66;5039255;28;20092;-33
2023/03/17 08:33:17;;;;;;;2.00;1.17;;;;;;;13.90;31.69;96818.34;5043816;28;20112;-33
2023/03/17 08:35:42;;;;;;;2.28;1.17;;;;;;;13.86;32.51;96822.38;5041074;28;20017;-33
2023/03/17 08:38:08;;;;;;;4.50;1.40;;;;;;;13.91;32.30;96819.09;5044543;28;20029;-33
2023/03/17 08:40:35;;;;;;;4.20;1.20;;;;;;;13.99;32.82;96821.16;5035238;28;20021;-32
2023/03/17 08:43:01;;;;;;;2.33;1.25;;;;;;;14.10;32.81;96817.31;5049289;28;20127;-32
2023/03/17 08:45:27;;;;;;;5.03;1.20;;;;;;;13.84;31.62;96822.84;5049997;28;20029;-34
2023/03/17 08:47:52;;;;;;;2.47;1.00;;;;;;;14.03;32.01;96819.09;5035270;28;20040;-34
2023/03/17 08:50:21;;;;;;;3.10;0.95;;;;;;;14.30;32.49;96832.22;5042520;28;20068;-33
2023/03/17 08:52:47;;;;;;;2.92;1.33;;;;;;;14.23;32.17;96827.00;5041704;28;20025;-33
2023/03/17 08:55:14;;;;;;;1.77;0.90;;;;;;;14.32;32.43;96823.63;5034989;28;20088;-33
2023/03/17 08:57:40;;;;;;;1.40;0.90;;;;;;;14.31;33.34;96822.09;5044799;28;20034;-32
2023/03/17 09:00:09;;;;;;;3.20;0.90;;;;;;;14.57;33.51;96823.56;5040400;28;20024;-33
2023/03/17 09:02:41;;;;;;;1.75;0.80;;;;;;;14.04;33.19;96822.56;5042628;28;20035;-33
2023/03/17 09:05:09;;;;;;;2.40;0.70;;;;;;;14.24;33.36;96811.41;5045433;28;20101;-32
2023/03/17 09:07:35;;;;;;;1.55;0.82;;;;;;;14.41;34.12;96823.72;5044061;28;20040;-33
2023/03/17 09:10:04;;;;;;;1.73;0.80;;;;;;;14.32;33.79;96810.72;5041949;28;20053;-33
2023/03/17 09:12:30;;;;;;;1.13;0.80;;;;;;;14.31;33.96;96808.44;5042074;28;20066;-33
2023/03/17 09:14:56;;;;;;;0.98;0.68;;;;;;;14.67;34.23;96810.75;5042312;28;20063;-33
2023/03/17 09:17:22;;;;;;;2.08;0.70;;;;;;;14.67;34.47;96810.75;5040494;28;20044;-33
2023/03/17 09:19:48;;;;;;;1.70;0.90;;;;;;;14.61;35.53;96816.00;5043842;28;20465;-33
2023/03/17 09:22:15;;;;;;;2.13;0.93;;;;;;;14.70;35.66;96816.09;5038005;28;20170;-34
2023/03/17 09:24:40;;;;;;;1.98;0.88;;;;;;;14.68;35.37;96821.22;5045266;28;20416;-32
2023/03/17 09:27:06;;;;;;;1.30;0.70;;;;;;;14.78;35.71;96815.81;5036985;28;20036;-33
2023/03/17 09:29:32;;;;;;;2.90;0.80;;;;;;;14.89;35.36;96816.97;5044909;28;20143;-33
2023/03/17 09:31:58;;;;;;;1.95;1.08;;;;;;;14.66;35.71;96815.44;5043784;28;20025;-33
2023/03/17 09:34:24;;;;;;;2.08;1.00;;;;;;;14.79;35.87;96818.09;5044973;28;20567;-34
2023/03/17 09:36:52;;;;;;;2.28;1.30;;;;;;;14.76;35.79;96812.75;5038162;28;20108;-33
2023/03/17 09:39:20;;;;;;;2.65;1.10;;;;;;;14.60;35.63;96821.88;5042098;28;20028;-33
2023/03/17 09:41:57;;;;;;;2.67;1.35;;;;;;;15.01;35.74;96818.09;5039910;28;20022;-33
2023/03/17 09:44:41;;;;;;;1.80;1.02;;;;;;;15.12;35.82;96813.00;5048622;28;20088;-32
2023/03/17 09:47:34;;;;;;;2.42;1.15;;;;;;;15.06;37.12;96814.78;5036570;28;20030;-32
2023/03/17 09:50:07;;;;;;;5.30;1.33;;;;;;;14.93;37.04;96814.09;5041467;28;20022;-33
2023/03/17 09:52:33;;;;;;;1.85;1.10;;;;;;;15.12;37.48;96813.00;5041076;28;20036;-33
2023/03/17 09:55:02;;;;;;;3.08;1.35;;;;;;;14.90;37.15;96806.78;5046380;28;20067;-33
2023/03/17 09:57:35;;;;;;;2.65;1.25;;;;;;;14.97;37.09;96807.28;5043169;28;20162;-32
2023/03/17 10:00:05;;;;;;;3.33;1.20;;;;;;;14.95;37.41;96808.97;5041319;28;20350;-33
2023/03/17 10:02:34;;;;;;;2.17;1.45;;;;;;;14.93;37.58;96811.38;5041277;28;20021;-33
2023/03/17 10:05:18;;;;;;;3.40;1.02;;;;;;;15.02;37.63;96804.00;5041425;28;20028;-33
2023/03/17 10:07:52;;;;;;;3.92;1.20;;;;;;;15.06;38.02;96806.59;5042449;28;20025;-33
2023/03/17 10:10:35;;;;;;;2.47;1.17;;;;;;;15.13;38.05;96814.53;5044453;28;20029;-33
2023/03/17 10:13:04;;;;;;;4.63;1.08;;;;;;;14.90;38.21;96809.53;5041044;28;20107;-32
2023/03/17 10:15:49;;;;;;;2.25;1.10;;;;;;;15.06;37.64;96809.34;5040781;28;20029;-33
2023/03/17 10:18:16;;;;;;;2.08;1.02;;;;;;;15.22;37.81;96803.63;5040862;28;20018;-33
2023/03/17 10:20:53;;;;;;;4.13;1.00;;;;;;;15.33;37.30;96803.25;5040985;28;20021;-33
2023/03/17 10:23:24;;;;;;;2.60;1.00;;;;;;;15.36;37.46;96810.53;5038221;28;20480;-32
2023/03/17 10:25:49;;;;;;;2.03;1.20;;;;;;;15.26;38.07;96798.06;5043039;28;20060;-32
2023/03/17 10:28:29;;;;;;;1.88;1.10;;;;;;;15.15;38.35;96805.88;5043586;28;20102;-33
2023/03/17 10:31:05;;;;;;;2.55;1.30;;;;;;;15.12;38.19;96804.03;5042905;28;20017;-33
2023/03/17 10:33:31;;;;;;;9.98;3.38;;;;;;;15.00;38.46;96794.72;5038152;28;20488;-33
2023/03/17 10:36:06;;;;;;;5.47;2.60;;;;;;;15.07;38.35;96794.47;5043547;28;20354;-33
2023/03/17 10:38:32;;;;;;;6.75;2.72;;;;;;;15.03;38.22;96794.59;5039582;28;20017;-33
2023/03/17 10:41:02;;;;;;;5.90;2.70;;;;;;;15.09;38.10;96802.97;5040384;28;20376;-32
2023/03/17 10:43:34;;;;;;;4.85;2.20;;;;;;;15.08;38.28;96793.25;5040768;28;20108;-33
2023/03/17 10:46:02;;;;;;;6.22;2.15;;;;;;;15.23;38.91;96798.94;5033538;28;20520;-32
2023/03/17 10:48:30;;;;;;;4.13;1.88;;;;;;;15.25;38.35;96794.56;5040106;28;20041;-32
2023/03/17 10:50:57;;;;;;;3.67;1.85;;;;;;;15.28;38.09;96790.16;5038937;28;20025;-33
2023/03/17 10:53:29;;;;;;;3.58;1.70;;;;;;;15.31;38.23;96792.78;5035231;28;20056;-32
2023/03/17 10:56:25;;;;;;;7.78;2.90;;;;;;;15.26;37.96;96790.63;5043576;28;20047;-33
2023/03/17 10:58:54;;;;;;;5.60;1.95;;;;;;;15.32;38.04;96788.06;5032537;28;20091;-33
2023/03/17 11:01:29;;;;;;;4.32;1.90;;;;;;;15.44;38.69;96781.75;5040265;28;20029;-33
2023/03/17 11:03:56;;;;;;;5.40;2.03;;;;;;;15.49;38.51;96791.31;5040908;28;20029;-33
2023/03/17 11:06:42;;;;;;;3.63;1.90;;;;;;;15.46;38.61;96791.00;5037370;28;20025;-33
2023/03/17 11:09:15;;;;;;;5.72;2.35;;;;;;;15.47;38.89;96783.56;5044434;28;20025;-33
2023/03/17 11:11:45;;;;;;;4.93;2.30;;;;;;;15.44;38.98;96790.72;5045750;28;20025;-33
2023/03/17 11:14:17;;;;;;;3.92;2.00;;;;;;;15.34;39.44;96786.38;5047331;28;20052;-33
2023/03/17 11:16:58;;;;;;;4.57;2.37;;;;;;;15.39;38.95;96782.31;5039100;28;20026;-34
2023/03/17 11:19:38;;;;;;;5.65;2.25;;;;;;;15.36;39.08;96783.22;5047725;28;20108;-34
2023/03/17 11:22:08;;;;;;;3.47;1.92;;;;;;;15.40;39.00;96781.88;5051314;28;20029;-33
2023/03/17 11:24:48;;;;;;;4.72;2.20;;;;;;;15.38;39.04;96781.56;5044069;28;20056;-34
2023/03/17 11:27:29;;;;;;;6.00;2.08;;;;;;;15.29;39.45;96792.47;5051095;28;20017;-32
2023/03/17 11:30:14;;;;;;;4.68;2.00;;;;;;;15.48;39.40;96792.53;5036356;28;20014;-33
2023/03/17 11:32:53;;;;;;;7.72;2.85;;;;;;;15.50;39.15;96781.91;5043080;28;20021;-32
2023/03/17 11:35:31;;;;;;;4.63;2.40;;;;;;;15.41;39.35;96774.44;5039617;28;20032;-33
2023/03/17 11:38:19;;;;;;;7.10;2.13;;;;;;;15.36;39.44;96777.75;5047037;28;20453;-33